sensor_id;sensor_type;location;lat;lon;timestamp;pressure;altitude;pressure_sealevel;temperature;humidity
62103;BME280;48077;48.104;11.702;2023-03-15T00:01:27;94770.78;;;1.39;100.00
62103;BME280;48077;48.104;11.702;2023-03-15T00:03:50;94767.56;;;1.44;100.00
62103;BME280;48077;48.104;11.702;2023-03-15T00:06:13;94731.66;;;1.23;100.00
62103;BME280;48077;48.104;11.702;2023-03-15T00:08:37;94770.63;;;1.47;100.00
62103;BME280;48077;48.104;11.702;2023-03-15T00:11:02;94726.81;;;1.19;100.00
62103;BME280;48077;48.104;11.702;2023-03-15T00:13:25;94722.56;;;1.18;100.00
62103;BME280;48077;48.104;11.702;2023-03-15T00:15:50;94745.91;;;1.41;100.00
62103;BME280;48077;48.104;11.702;2023-03-15T00:18:15;94682.13;;;1.13;100.00
62103;BME280;48077;48.104;11.702;2023-03-15T00:20:38;94707.28;;;1.35;100.00
62103;BME280;48077;48.104;11.702;2023-03-15T00:23:02;94744.63;;;1.59;100.00
62103;BME280;48077;48.104;11.702;2023-03-15T00:25:26;94762.69;;;1.75;100.00
62103;BME280;48077;48.104;11.702;2023-03-15T00:27:49;94718.31;;;1.52;100.00
62103;BME280;48077;48.104;11.702;2023-03-15T00:30:12;94772.25;;;1.90;100.00
62103;BME280;48077;48.104;11.702;2023-03-15T00:32:36;94732.09;;;1.68;100.00
62103;BME280;48077;48.104;11.702;2023-03-15T00:34:59;94745.06;;;1.69;100.00
62103;BME280;48077;48.104;11.702;2023-03-15T00:37:23;94794.94;;;1.97;100.00
62103;BME280;48077;48.104;11.702;2023-03-15T00:39:47;94738.16;;;1.68;100.00
62103;BME280;48077;48.104;11.702;2023-03-15T00:42:12;94778.13;;;1.92;100.00
62103;BME280;48077;48.104;11.702;2023-03-15T00:44:37;94764.53;;;1.81;100.00
62103;BME280;48077;48.104;11.702;2023-03-15T00:47:00;94740.38;;;1.65;100.00
62103;BME280;48077;48.104;11.702;2023-03-15T00:49:24;94751.31;;;1.68;100.00
62103;BME280;48077;48.104;11.702;2023-03-15T00:51:47;94729.38;;;1.48;100.00
62103;BME280;48077;48.104;11.702;2023-03-15T00:54:11;94748.47;;;1.63;100.00
62103;BME280;48077;48.104;11.702;2023-03-15T00:56:35;94721.50;;;1.48;100.00
62103;BME280;48077;48.104;11.702;2023-03-15T00:58:59;94724.72;;;1.50;100.00
62103;BME280;48077;48.104;11.702;2023-03-15T01:01:25;94711.53;;;1.36;100.00
62103;BME280;48077;48.104;11.702;2023-03-15T01:03:49;94699.53;;;1.20;100.00
62103;BME280;48077;48.104;11.702;2023-03-15T01:06:32;94779.16;;;1.56;100.00
62103;BME280;48077;48.104;11.702;2023-03-15T01:08:56;94803.41;;;1.51;100.00
62103;BME280;48077;48.104;11.702;2023-03-15T01:11:21;94862.47;;;1.55;100.00
62103;BME280;48077;48.104;11.702;2023-03-15T01:13:46;94838.00;;;1.27;100.00
62103;BME280;48077;48.104;11.702;2023-03-15T01:16:11;94838.03;;;1.05;100.00
62103;BME280;48077;48.104;11.702;2023-03-15T01:18:35;94801.75;;;0.44;100.00
62103;BME280;48077;48.104;11.702;2023-03-15T01:21:00;94794.06;;;0.06;100.00
62103;BME280;48077;48.104;11.702;2023-03-15T01:23:23;94794.38;;;-0.04;100.00
62103;BME280;48077;48.104;11.702;2023-03-15T01:25:46;94783.53;;;-0.15;100.00
62103;BME280;48077;48.104;11.702;2023-03-15T01:28:11;94823.84;;;-0.02;100.00
62103;BME280;48077;48.104;11.702;2023-03-15T01:30:35;94790.59;;;-0.16;100.00
62103;BME280;48077;48.104;11.702;2023-03-15T01:32:58;94783.53;;;-0.15;100.00
62103;BME280;48077;48.104;11.702;2023-03-15T01:35:22;94760.84;;;-0.23;100.00
62103;BME280;48077;48.104;11.702;2023-03-15T01:37:48;94734.34;;;-0.35;100.00
62103;BME280;48077;48.104;11.702;2023-03-15T01:40:12;94809.63;;;0.08;100.00
62103;BME280;48077;48.104;11.702;2023-03-15T01:48:16;94769.94;;;0.11;100.00
62103;BME280;48077;48.104;11.702;2023-03-15T01:50:41;94755.44;;;-0.22;100.00
62103;BME280;48077;48.104;11.702;2023-03-15T01:53:04;94815.31;;;0.11;100.00
62103;BME280;48077;48.104;11.702;2023-03-15T01:55:28;94756.53;;;-0.16;100.00
62103;BME280;48077;48.104;11.702;2023-03-15T01:57:56;94795.53;;;0.09;100.00
62103;BME280;48077;48.104;11.702;2023-03-15T02:00:21;94801.91;;;0.21;100.00
62103;BME280;48077;48.104;11.702;2023-03-15T02:02:59;94825.41;;;0.29;100.00
62103;BME280;48077;48.104;11.702;2023-03-15T02:05:28;94794.16;;;0.13;100.00
62103;BME280;48077;48.104;11.702;2023-03-15T02:07:55;94787.78;;;0.01;100.00
62103;BME280;48077;48.104;11.702;2023-03-15T02:12:51;94794.63;;;0.02;100.00
62103;BME280;48077;48.104;11.702;2023-03-15T02:15:15;94848.88;;;0.37;100.00
62103;BME280;48077;48.104;11.702;2023-03-15T02:17:45;94750.81;;;-0.19;100.00
62103;BME280;48077;48.104;11.702;2023-03-15T02:22:59;94839.06;;;0.25;100.00
62103;BME280;48077;48.104;11.702;2023-03-15T02:28:15;94810.81;;;0.05;100.00
62103;BME280;48077;48.104;11.702;2023-03-15T02:30:40;94856.69;;;0.31;100.00
62103;BME280;48077;48.104;11.702;2023-03-15T02:33:06;94837.38;;;0.17;100.00
62103;BME280;48077;48.104;11.702;2023-03-15T02:35:32;94872.59;;;0.44;100.00
62103;BME280;48077;48.104;11.702;2023-03-15T02:37:56;94834.88;;;0.09;100.00
62103;BME280;48077;48.104;11.702;2023-03-15T02:40:22;94870.06;;;0.36;100.00
62103;BME280;48077;48.104;11.702;2023-03-15T02:42:47;94845.03;;;0.18;100.00
62103;BME280;48077;48.104;11.702;2023-03-15T02:45:13;94851.75;;;0.21;100.00
62103;BME280;48077;48.104;11.702;2023-03-15T02:47:37;94852.09;;;0.18;100.00
62103;BME280;48077;48.104;11.702;2023-03-15T02:50:00;94822.66;;;0.01;100.00
62103;BME280;48077;48.104;11.702;2023-03-15T02:52:24;94826.09;;;0.02;100.00
62103;BME280;48077;48.104;11.702;2023-03-15T02:54:49;94864.03;;;0.20;100.00
62103;BME280;48077;48.104;11.702;2023-03-15T02:57:14;94852.47;;;0.15;100.00
62103;BME280;48077;48.104;11.702;2023-03-15T02:59:37;94909.75;;;0.48;100.00
62103;BME280;48077;48.104;11.702;2023-03-15T03:02:01;94904.44;;;0.41;100.00
62103;BME280;48077;48.104;11.702;2023-03-15T03:04:24;94897.38;;;0.42;100.00
62103;BME280;48077;48.104;11.702;2023-03-15T03:06:48;94911.13;;;0.29;100.00
62103;BME280;48077;48.104;11.702;2023-03-15T03:09:11;94946.66;;;0.61;100.00
62103;BME280;48077;48.104;11.702;2023-03-15T03:11:35;94895.72;;;0.19;100.00
62103;BME280;48077;48.104;11.702;2023-03-15T03:13:58;94891.28;;;0.05;100.00
62103;BME280;48077;48.104;11.702;2023-03-15T03:16:21;94917.31;;;0.06;100.00
62103;BME280;48077;48.104;11.702;2023-03-15T03:18:45;94929.53;;;0.14;100.00
62103;BME280;48077;48.104;11.702;2023-03-15T03:21:08;94991.47;;;0.30;100.00
62103;BME280;48077;48.104;11.702;2023-03-15T03:23:34;94891.16;;;-0.47;100.00
62103;BME280;48077;48.104;11.702;2023-03-15T03:25:58;94981.00;;;0.00;100.00
62103;BME280;48077;48.104;11.702;2023-03-15T03:28:24;95030.44;;;0.18;100.00
62103;BME280;48077;48.104;11.702;2023-03-15T03:30:48;95001.84;;;-0.07;100.00
62103;BME280;48077;48.104;11.702;2023-03-15T03:33:11;95050.69;;;-0.06;100.00
62103;BME280;48077;48.104;11.702;2023-03-15T03:35:34;95012.59;;;-0.16;100.00
62103;BME280;48077;48.104;11.702;2023-03-15T03:37:58;95044.13;;;-0.25;100.00
62103;BME280;48077;48.104;11.702;2023-03-15T03:40:21;95045.38;;;-0.35;100.00
62103;BME280;48077;48.104;11.702;2023-03-15T03:42:45;95044.19;;;-0.33;100.00
62103;BME280;48077;48.104;11.702;2023-03-15T03:45:08;95106.31;;;-0.18;100.00
62103;BME280;48077;48.104;11.702;2023-03-15T03:47:32;95033.94;;;-0.66;100.00
62103;BME280;48077;48.104;11.702;2023-03-15T03:49:56;95044.19;;;-0.79;100.00
62103;BME280;48077;48.104;11.702;2023-03-15T03:52:19;95053.59;;;-0.70;100.00
62103;BME280;48077;48.104;11.702;2023-03-15T03:54:43;95088.53;;;-0.54;100.00
62103;BME280;48077;48.104;11.702;2023-03-15T03:57:06;95092.28;;;-0.49;100.00
62103;BME280;48077;48.104;11.702;2023-03-15T03:59:29;95066.06;;;-0.72;100.00
62103;BME280;48077;48.104;11.702;2023-03-15T04:01:53;95121.56;;;-0.45;100.00
62103;BME280;48077;48.104;11.702;2023-03-15T04:04:16;95091.97;;;-0.77;100.00
62103;BME280;48077;48.104;11.702;2023-03-15T04:06:40;95153.63;;;-0.35;100.00
62103;BME280;48077;48.104;11.702;2023-03-15T04:09:07;95093.53;;;-0.68;100.00
62103;BME280;48077;48.104;11.702;2023-03-15T04:11:33;95115.63;;;-0.62;100.00
62103;BME280;48077;48.104;11.702;2023-03-15T04:13:58;95113.69;;;-0.68;100.00
62103;BME280;48077;48.104;11.702;2023-03-15T04:16:21;95189.84;;;-0.15;100.00
62103;BME280;48077;48.104;11.702;2023-03-15T04:18:46;95135.03;;;-0.56;100.00
62103;BME280;48077;48.104;11.702;2023-03-15T04:21:10;95121.59;;;-0.76;100.00
62103;BME280;48077;48.104;11.702;2023-03-15T04:23:33;95159.50;;;-0.64;100.00
62103;BME280;48077;48.104;11.702;2023-03-15T04:25:56;95207.97;;;-0.29;100.00
62103;BME280;48077;48.104;11.702;2023-03-15T04:28:20;95215.88;;;-0.37;100.00
62103;BME280;48077;48.104;11.702;2023-03-15T04:30:46;95143.72;;;-0.87;100.00
62103;BME280;48077;48.104;11.702;2023-03-15T04:33:10;95231.75;;;-0.38;100.00
62103;BME280;48077;48.104;11.702;2023-03-15T04:35:34;95212.31;;;-0.52;100.00
62103;BME280;48077;48.104;11.702;2023-03-15T04:37:58;95223.19;;;-0.64;100.00
62103;BME280;48077;48.104;11.702;2023-03-15T04:40:23;95214.16;;;-0.61;100.00
62103;BME280;48077;48.104;11.702;2023-03-15T04:42:52;95238.31;;;-0.43;100.00
62103;BME280;48077;48.104;11.702;2023-03-15T04:45:19;95205.06;;;-0.82;100.00
62103;BME280;48077;48.104;11.702;2023-03-15T04:47:42;95219.28;;;-0.76;100.00
62103;BME280;48077;48.104;11.702;2023-03-15T04:50:06;95221.28;;;-0.86;100.00
62103;BME280;48077;48.104;11.702;2023-03-15T04:52:29;95245.75;;;-0.63;100.00
62103;BME280;48077;48.104;11.702;2023-03-15T04:54:53;95226.53;;;-0.86;100.00
62103;BME280;48077;48.104;11.702;2023-03-15T04:57:16;95245.66;;;-0.77;100.00
62103;BME280;48077;48.104;11.702;2023-03-15T04:59:39;95258.69;;;-0.61;100.00
62103;BME280;48077;48.104;11.702;2023-03-15T05:02:03;95261.81;;;-0.57;100.00
62103;BME280;48077;48.104;11.702;2023-03-15T05:04:26;95230.94;;;-0.87;100.00
62103;BME280;48077;48.104;11.702;2023-03-15T05:06:50;95257.09;;;-0.70;100.00
62103;BME280;48077;48.104;11.702;2023-03-15T05:09:13;95284.56;;;-0.58;100.00
62103;BME280;48077;48.104;11.702;2023-03-15T05:11:41;95246.00;;;-0.89;100.00
62103;BME280;48077;48.104;11.702;2023-03-15T05:14:04;95325.78;;;-0.44;100.00
62103;BME280;48077;48.104;11.702;2023-03-15T05:16:27;95317.47;;;-0.55;100.00
62103;BME280;48077;48.104;11.702;2023-03-15T05:18:51;95313.56;;;-0.68;100.00
62103;BME280;48077;48.104;11.702;2023-03-15T05:21:16;95294.09;;;-0.73;100.00
62103;BME280;48077;48.104;11.702;2023-03-15T05:23:39;95349.88;;;-0.56;100.00
62103;BME280;48077;48.104;11.702;2023-03-15T05:26:03;95335.19;;;-0.74;100.00
62103;BME280;48077;48.104;11.702;2023-03-15T05:28:27;95358.75;;;-0.66;100.00
62103;BME280;48077;48.104;11.702;2023-03-15T05:30:51;95290.56;;;-1.13;100.00
62103;BME280;48077;48.104;11.702;2023-03-15T05:33:15;95309.22;;;-1.16;100.00
62103;BME280;48077;48.104;11.702;2023-03-15T05:35:38;95305.44;;;-1.22;100.00
62103;BME280;48077;48.104;11.702;2023-03-15T05:38:02;95294.97;;;-1.30;100.00
62103;BME280;48077;48.104;11.702;2023-03-15T05:40:26;95345.88;;;-1.08;100.00
62103;BME280;48077;48.104;11.702;2023-03-15T05:42:52;95363.34;;;-1.09;100.00
62103;BME280;48077;48.104;11.702;2023-03-15T05:45:15;95329.97;;;-1.15;100.00
62103;BME280;48077;48.104;11.702;2023-03-15T05:47:38;95354.53;;;-1.08;100.00
62103;BME280;48077;48.104;11.702;2023-03-15T05:50:02;95386.09;;;-0.85;100.00
62103;BME280;48077;48.104;11.702;2023-03-15T05:52:27;95326.38;;;-1.30;100.00
62103;BME280;48077;48.104;11.702;2023-03-15T05:54:50;95361.38;;;-1.07;100.00
62103;BME280;48077;48.104;11.702;2023-03-15T05:57:14;95375.31;;;-1.06;100.00
62103;BME280;48077;48.104;11.702;2023-03-15T05:59:37;95404.44;;;-0.93;100.00
62103;BME280;48077;48.104;11.702;2023-03-15T06:02:00;95376.94;;;-1.13;100.00
62103;BME280;48077;48.104;11.702;2023-03-15T06:04:24;95421.94;;;-0.85;100.00
62103;BME280;48077;48.104;11.702;2023-03-15T06:06:47;95399.03;;;-0.99;100.00
62103;BME280;48077;48.104;11.702;2023-03-15T06:09:11;95407.06;;;-0.93;100.00
62103;BME280;48077;48.104;11.702;2023-03-15T06:11:34;95445.69;;;-0.70;100.00
62103;BME280;48077;48.104;11.702;2023-03-15T06:13:57;95376.63;;;-1.10;100.00
62103;BME280;48077;48.104;11.702;2023-03-15T06:16:21;95379.41;;;-1.12;100.00
62103;BME280;48077;48.104;11.702;2023-03-15T06:18:45;95346.34;;;-1.37;100.00
62103;BME280;48077;48.104;11.702;2023-03-15T06:21:08;95402.31;;;-0.89;100.00
62103;BME280;48077;48.104;11.702;2023-03-15T06:23:31;95398.84;;;-0.98;100.00
62103;BME280;48077;48.104;11.702;2023-03-15T06:25:55;95406.25;;;-0.93;100.00
62103;BME280;48077;48.104;11.702;2023-03-15T06:28:18;95444.22;;;-0.81;100.00
62103;BME280;48077;48.104;11.702;2023-03-15T06:30:42;95387.75;;;-1.16;100.00
62103;BME280;48077;48.104;11.702;2023-03-15T06:33:08;95326.19;;;-1.61;100.00
62103;BME280;48077;48.104;11.702;2023-03-15T06:35:31;95461.91;;;-0.75;100.00
62103;BME280;48077;48.104;11.702;2023-03-15T06:37:55;95363.66;;;-1.36;100.00
62103;BME280;48077;48.104;11.702;2023-03-15T06:40:18;95373.31;;;-1.37;100.00
62103;BME280;48077;48.104;11.702;2023-03-15T06:42:42;95334.38;;;-1.65;100.00
62103;BME280;48077;48.104;11.702;2023-03-15T06:45:07;95385.59;;;-1.21;100.00
62103;BME280;48077;48.104;11.702;2023-03-15T06:47:31;95292.97;;;-1.77;100.00
62103;BME280;48077;48.104;11.702;2023-03-15T06:49:55;95485.13;;;-0.47;100.00
62103;BME280;48077;48.104;11.702;2023-03-15T06:52:19;95336.03;;;-1.47;100.00
62103;BME280;48077;48.104;11.702;2023-03-15T06:54:45;95331.13;;;-1.42;100.00
62103;BME280;48077;48.104;11.702;2023-03-15T06:57:11;95341.94;;;-1.29;100.00
62103;BME280;48077;48.104;11.702;2023-03-15T06:59:38;95494.78;;;-0.23;100.00
62103;BME280;48077;48.104;11.702;2023-03-15T07:02:02;95491.69;;;-0.18;100.00
62103;BME280;48077;48.104;11.702;2023-03-15T07:04:25;95484.78;;;-0.28;100.00
62103;BME280;48077;48.104;11.702;2023-03-15T07:06:49;95481.84;;;-0.25;100.00
62103;BME280;48077;48.104;11.702;2023-03-15T07:09:12;95422.25;;;-0.55;100.00
62103;BME280;48077;48.104;11.702;2023-03-15T07:11:36;95475.94;;;-0.18;100.00
62103;BME280;48077;48.104;11.702;2023-03-15T07:13:59;95491.81;;;-0.12;100.00
62103;BME280;48077;48.104;11.702;2023-03-15T07:16:23;95445.84;;;-0.47;100.00
62103;BME280;48077;48.104;11.702;2023-03-15T07:18:47;95503.78;;;-0.09;100.00
62103;BME280;48077;48.104;11.702;2023-03-15T07:21:10;95484.94;;;-0.21;100.00
62103;BME280;48077;48.104;11.702;2023-03-15T07:23:34;95487.09;;;-0.16;100.00
62103;BME280;48077;48.104;11.702;2023-03-15T07:25:57;95517.53;;;0.01;100.00
62103;BME280;48077;48.104;11.702;2023-03-15T07:28:22;95444.19;;;-0.40;100.00
62103;BME280;48077;48.104;11.702;2023-03-15T07:31:03;95455.66;;;-0.33;100.00
62103;BME280;48077;48.104;11.702;2023-03-15T07:33:30;95524.06;;;0.13;100.00
62103;BME280;48077;48.104;11.702;2023-03-15T07:35:54;95468.75;;;-0.25;100.00
62103;BME280;48077;48.104;11.702;2023-03-15T07:38:17;95473.63;;;-0.22;100.00
62103;BME280;48077;48.104;11.702;2023-03-15T07:40:41;95531.59;;;0.16;100.00
62103;BME280;48077;48.104;11.702;2023-03-15T07:43:04;95465.94;;;-0.15;100.00
62103;BME280;48077;48.104;11.702;2023-03-15T07:45:28;95537.16;;;0.30;98.71
62103;BME280;48077;48.104;11.702;2023-03-15T07:47:52;95467.88;;;-0.09;98.54
62103;BME280;48077;48.104;11.702;2023-03-15T07:50:15;95470.69;;;-0.02;98.42
62103;BME280;48077;48.104;11.702;2023-03-15T07:52:39;95485.38;;;0.15;97.04
62103;BME280;48077;48.104;11.702;2023-03-15T07:55:03;95471.13;;;0.10;97.23
62103;BME280;48077;48.104;11.702;2023-03-15T07:57:30;95483.06;;;0.12;97.69
62103;BME280;48077;48.104;11.702;2023-03-15T07:59:54;95498.31;;;0.25;96.65
62103;BME280;48077;48.104;11.702;2023-03-15T08:02:18;95520.19;;;0.49;97.20
62103;BME280;48077;48.104;11.702;2023-03-15T08:04:41;95527.88;;;0.58;97.02
62103;BME280;48077;48.104;11.702;2023-03-15T08:07:08;95402.06;;;-0.22;96.13
62103;BME280;48077;48.104;11.702;2023-03-15T08:09:31;95450.44;;;0.23;96.28
62103;BME280;48077;48.104;11.702;2023-03-15T08:11:58;95447.97;;;0.22;93.95
62103;BME280;48077;48.104;11.702;2023-03-15T08:14:23;95481.13;;;0.54;94.23
62103;BME280;48077;48.104;11.702;2023-03-15T08:16:47;95451.88;;;0.34;93.62
62103;BME280;48077;48.104;11.702;2023-03-15T08:19:10;95540.50;;;1.03;92.24
62103;BME280;48077;48.104;11.702;2023-03-15T08:21:33;95510.00;;;0.93;90.87
62103;BME280;48077;48.104;11.702;2023-03-15T08:23:57;95464.69;;;0.60;90.63
62103;BME280;48077;48.104;11.702;2023-03-15T08:26:20;95514.91;;;0.96;90.24
62103;BME280;48077;48.104;11.702;2023-03-15T08:28:44;95472.69;;;0.67;90.62
62103;BME280;48077;48.104;11.702;2023-03-15T08:31:08;95537.13;;;1.17;87.91
62103;BME280;48077;48.104;11.702;2023-03-15T08:33:31;95462.66;;;0.78;88.22
62103;BME280;48077;48.104;11.702;2023-03-15T08:35:55;95495.66;;;1.04;87.39
62103;BME280;48077;48.104;11.702;2023-03-15T08:38:18;95470.69;;;0.77;88.56
62103;BME280;48077;48.104;11.702;2023-03-15T08:40:41;95507.03;;;0.96;89.37
62103;BME280;48077;48.104;11.702;2023-03-15T08:43:05;95450.94;;;0.58;89.88
62103;BME280;48077;48.104;11.702;2023-03-15T08:45:28;95494.47;;;0.84;90.92
62103;BME280;48077;48.104;11.702;2023-03-15T08:47:58;95531.97;;;1.32;90.05
62103;BME280;48077;48.104;11.702;2023-03-15T08:50:22;95468.63;;;0.95;90.33
62103;BME280;48077;48.104;11.702;2023-03-15T08:52:46;95531.97;;;1.55;89.76
62103;BME280;48077;48.104;11.702;2023-03-15T08:55:10;95534.34;;;1.65;85.40
62103;BME280;48077;48.104;11.702;2023-03-15T08:57:36;95447.97;;;1.15;84.83
62103;BME280;48077;48.104;11.702;2023-03-15T09:00:00;95524.00;;;1.86;83.24
62103;BME280;48077;48.104;11.702;2023-03-15T09:02:28;95523.38;;;1.99;81.86
62103;BME280;48077;48.104;11.702;2023-03-15T09:04:53;95458.09;;;1.65;80.88
62103;BME280;48077;48.104;11.702;2023-03-15T09:07:17;95454.22;;;1.75;80.08
62103;BME280;48077;48.104;11.702;2023-03-15T09:09:41;95508.09;;;2.32;79.14
62103;BME280;48077;48.104;11.702;2023-03-15T09:12:04;95399.97;;;1.59;73.71
62103;BME280;48077;48.104;11.702;2023-03-15T09:14:28;95504.81;;;2.30;76.81
62103;BME280;48077;48.104;11.702;2023-03-15T09:16:51;95499.84;;;2.50;79.26
62103;BME280;48077;48.104;11.702;2023-03-15T09:19:15;95515.97;;;2.62;76.28
62103;BME280;48077;48.104;11.702;2023-03-15T09:21:38;95501.97;;;2.76;77.23
62103;BME280;48077;48.104;11.702;2023-03-15T09:24:01;95486.09;;;2.70;79.05
62103;BME280;48077;48.104;11.702;2023-03-15T09:26:25;95502.13;;;3.04;75.68
62103;BME280;48077;48.104;11.702;2023-03-15T09:28:50;95530.59;;;3.31;76.61
62103;BME280;48077;48.104;11.702;2023-03-15T09:31:14;95474.81;;;2.91;73.62
62103;BME280;48077;48.104;11.702;2023-03-15T09:33:37;95532.47;;;3.37;73.13
62103;BME280;48077;48.104;11.702;2023-03-15T09:36:00;95471.88;;;3.00;70.96
62103;BME280;48077;48.104;11.702;2023-03-15T09:38:24;95532.88;;;3.34;71.78
62103;BME280;48077;48.104;11.702;2023-03-15T09:40:48;95494.19;;;3.19;72.17
62103;BME280;48077;48.104;11.702;2023-03-15T09:46:00;95531.25;;;3.54;69.11
62103;BME280;48077;48.104;11.702;2023-03-15T09:48:36;95488.53;;;3.22;71.37
62103;BME280;48077;48.104;11.702;2023-03-15T09:51:32;95535.56;;;3.62;71.17
62103;BME280;48077;48.104;11.702;2023-03-15T09:56:33;95494.59;;;3.38;68.37
62103;BME280;48077;48.104;11.702;2023-03-15T09:59:00;95538.16;;;3.77;69.52
62103;BME280;48077;48.104;11.702;2023-03-15T10:01:44;95525.66;;;3.85;69.86
62103;BME280;48077;48.104;11.702;2023-03-15T10:04:14;95533.00;;;4.18;68.82
62103;BME280;48077;48.104;11.702;2023-03-15T10:06:45;95489.63;;;3.99;64.99
62103;BME280;48077;48.104;11.702;2023-03-15T10:09:15;95445.44;;;3.80;65.61
62103;BME280;48077;48.104;11.702;2023-03-15T10:12:02;95549.16;;;4.58;65.29
62103;BME280;48077;48.104;11.702;2023-03-15T10:17:34;95553.09;;;4.76;66.41
62103;BME280;48077;48.104;11.702;2023-03-15T10:20:12;95535.16;;;4.64;64.19
62103;BME280;48077;48.104;11.702;2023-03-15T10:22:51;95549.75;;;4.60;62.21
62103;BME280;48077;48.104;11.702;2023-03-15T10:25:22;95556.59;;;4.48;62.41
62103;BME280;48077;48.104;11.702;2023-03-15T10:27:49;95555.91;;;4.39;57.06
62103;BME280;48077;48.104;11.702;2023-03-15T10:30:18;95542.53;;;4.41;57.63
62103;BME280;48077;48.104;11.702;2023-03-15T10:32:45;95524.44;;;4.38;58.08
62103;BME280;48077;48.104;11.702;2023-03-15T10:35:16;95528.88;;;4.37;54.53
62103;BME280;48077;48.104;11.702;2023-03-15T10:37:40;95518.66;;;3.99;56.45
62103;BME280;48077;48.104;11.702;2023-03-15T10:40:05;95494.84;;;3.93;54.86
62103;BME280;48077;48.104;11.702;2023-03-15T10:42:32;95538.59;;;4.30;55.90
62103;BME280;48077;48.104;11.702;2023-03-15T10:44:57;95511.13;;;4.24;54.92
62103;BME280;48077;48.104;11.702;2023-03-15T10:47:21;95478.97;;;4.14;55.26
62103;BME280;48077;48.104;11.702;2023-03-15T10:49:44;95496.53;;;4.29;56.54
62103;BME280;48077;48.104;11.702;2023-03-15T10:52:43;95544.88;;;4.92;53.61
62103;BME280;48077;48.104;11.702;2023-03-15T10:55:13;95454.28;;;4.70;52.78
62103;BME280;48077;48.104;11.702;2023-03-15T10:57:40;95481.53;;;5.25;52.88
62103;BME280;48077;48.104;11.702;2023-03-15T11:00:29;95526.59;;;5.72;52.68
62103;BME280;48077;48.104;11.702;2023-03-15T11:03:05;95531.75;;;6.20;53.84
62103;BME280;48077;48.104;11.702;2023-03-15T11:05:41;95518.53;;;6.34;51.74
62103;BME280;48077;48.104;11.702;2023-03-15T11:08:10;95536.25;;;6.40;50.77
62103;BME280;48077;48.104;11.702;2023-03-15T11:10:34;95498.53;;;5.98;51.47
62103;BME280;48077;48.104;11.702;2023-03-15T11:15:47;95481.63;;;5.72;50.01
62103;BME280;48077;48.104;11.702;2023-03-15T11:18:19;95466.56;;;6.19;48.69
62103;BME280;48077;48.104;11.702;2023-03-15T11:20:46;95522.31;;;6.64;48.34
62103;BME280;48077;48.104;11.702;2023-03-15T11:23:21;95519.69;;;7.23;47.57
62103;BME280;48077;48.104;11.702;2023-03-15T11:25:48;95504.56;;;7.30;44.60
62103;BME280;48077;48.104;11.702;2023-03-15T11:28:17;95502.69;;;7.76;43.80
62103;BME280;48077;48.104;11.702;2023-03-15T11:30:41;95517.16;;;6.89;42.91
62103;BME280;48077;48.104;11.702;2023-03-15T11:33:07;95525.84;;;6.05;45.63
62103;BME280;48077;48.104;11.702;2023-03-15T11:35:35;95510.72;;;5.72;48.64
62103;BME280;48077;48.104;11.702;2023-03-15T11:38:16;95527.75;;;5.36;47.83
62103;BME280;48077;48.104;11.702;2023-03-15T11:40:50;95434.56;;;5.21;46.00
62103;BME280;48077;48.104;11.702;2023-03-15T11:43:20;95522.38;;;5.16;45.68
62103;BME280;48077;48.104;11.702;2023-03-15T11:45:57;95520.66;;;4.95;46.90
62103;BME280;48077;48.104;11.702;2023-03-15T11:48:45;95518.84;;;5.51;45.16
62103;BME280;48077;48.104;11.702;2023-03-15T11:51:11;95500.16;;;6.39;43.26
62103;BME280;48077;48.104;11.702;2023-03-15T11:53:38;95482.94;;;6.81;43.41
62103;BME280;48077;48.104;11.702;2023-03-15T11:56:26;95490.78;;;6.56;42.42
62103;BME280;48077;48.104;11.702;2023-03-15T11:59:09;95500.00;;;6.00;43.84
62103;BME280;48077;48.104;11.702;2023-03-15T12:01:35;95459.94;;;6.75;42.04
62103;BME280;48077;48.104;11.702;2023-03-15T12:04:26;95483.88;;;7.77;41.83
62103;BME280;48077;48.104;11.702;2023-03-15T12:06:53;95470.16;;;8.30;41.43
62103;BME280;48077;48.104;11.702;2023-03-15T12:12:00;95477.84;;;9.01;38.17
62103;BME280;48077;48.104;11.702;2023-03-15T12:16:50;95456.06;;;8.74;37.80
62103;BME280;48077;48.104;11.702;2023-03-15T12:19:18;95483.66;;;8.54;35.56
62103;BME280;48077;48.104;11.702;2023-03-15T12:21:45;95472.34;;;7.90;37.78
62103;BME280;48077;48.104;11.702;2023-03-15T12:24:24;95440.31;;;6.83;38.20
62103;BME280;48077;48.104;11.702;2023-03-15T12:29:25;95448.50;;;7.20;39.66
62103;BME280;48077;48.104;11.702;2023-03-15T12:34:26;95429.88;;;7.90;38.92
62103;BME280;48077;48.104;11.702;2023-03-15T12:36:56;95437.09;;;8.01;39.40
62103;BME280;48077;48.104;11.702;2023-03-15T12:42:00;95456.19;;;8.60;38.63
62103;BME280;48077;48.104;11.702;2023-03-15T12:44:36;95459.06;;;7.65;39.88
62103;BME280;48077;48.104;11.702;2023-03-15T12:47:03;95463.50;;;7.01;41.19
62103;BME280;48077;48.104;11.702;2023-03-15T12:49:34;95455.50;;;6.56;42.20
62103;BME280;48077;48.104;11.702;2023-03-15T12:57:46;95445.78;;;6.95;41.66
62103;BME280;48077;48.104;11.702;2023-03-15T13:00:29;95451.41;;;6.60;42.16
62103;BME280;48077;48.104;11.702;2023-03-15T13:03:06;95453.34;;;6.19;43.11
62103;BME280;48077;48.104;11.702;2023-03-15T13:18:57;95439.25;;;5.39;46.18
62103;BME280;48077;48.104;11.702;2023-03-15T13:21:33;95397.88;;;4.98;46.54
62103;BME280;48077;48.104;11.702;2023-03-15T13:23:58;95448.59;;;5.35;46.22
62103;BME280;48077;48.104;11.702;2023-03-15T13:28:57;95456.75;;;5.40;44.86
62103;BME280;48077;48.104;11.702;2023-03-15T13:31:23;95427.38;;;5.08;44.95
62103;BME280;48077;48.104;11.702;2023-03-15T13:33:49;95453.25;;;5.13;44.99
62103;BME280;48077;48.104;11.702;2023-03-15T13:36:15;95419.44;;;5.01;45.42
62103;BME280;48077;48.104;11.702;2023-03-15T13:38:50;95407.94;;;4.68;45.26
62103;BME280;48077;48.104;11.702;2023-03-15T13:41:18;95462.94;;;4.99;45.41
62103;BME280;48077;48.104;11.702;2023-03-15T13:43:42;95455.63;;;5.01;46.00